createdAt,value
2018-03-31T00:00:50.689Z,0.00
2018-03-31T00:02:22.709Z,0.00
2018-03-31T00:03:54.323Z,0.00
2018-03-31T00:05:26.137Z,0.00
2018-03-31T00:06:57.954Z,0.00
2018-03-31T00:08:29.770Z,0.00
2018-03-31T00:10:01.587Z,0.00
2018-03-31T00:11:33.403Z,0.00
2018-03-31T00:13:05.219Z,0.00
2018-03-31T00:14:37.136Z,0.00
2018-03-31T00:16:08.852Z,0.00
2018-03-31T00:17:40.669Z,0.00
2018-03-31T00:19:12.484Z,0.00
2018-03-31T00:20:44.401Z,0.00
2018-03-31T00:22:16.118Z,0.00
2018-03-31T00:23:47.934Z,0.00
2018-03-31T00:25:19.750Z,0.00
2018-03-31T00:26:51.569Z,0.00
2018-03-31T00:28:23.384Z,0.00
2018-03-31T00:29:55.199Z,0.00
2018-03-31T00:31:27.016Z,0.00
2018-03-31T00:32:59.135Z,0.00
2018-03-31T00:34:30.651Z,0.00
2018-03-31T00:36:02.466Z,0.00
2018-03-31T00:37:34.282Z,0.00
2018-03-31T00:39:06.097Z,0.00
2018-03-31T00:40:37.913Z,0.00
2018-03-31T00:42:09.731Z,0.00
2018-03-31T00:43:41.548Z,0.00
2018-03-31T00:45:13.362Z,0.00
2018-03-31T00:46:45.177Z,0.00
2018-03-31T00:48:16.994Z,0.00
2018-03-31T00:49:48.810Z,0.00
2018-03-31T00:51:21.077Z,0.00
2018-03-31T00:52:52.445Z,0.00
2018-03-31T00:54:24.259Z,0.00
2018-03-31T00:55:56.075Z,0.00
2018-03-31T00:57:27.892Z,0.00
2018-03-31T01:00:31.524Z,0.00
2018-03-31T01:02:03.340Z,0.00
2018-03-31T01:03:35.156Z,0.00
2018-03-31T01:05:06.973Z,0.00
2018-03-31T01:06:38.788Z,0.00
2018-03-31T01:08:10.612Z,0.00
2018-03-31T01:09:42.520Z,0.00
2018-03-31T01:11:14.248Z,0.00
2018-03-31T01:12:46.052Z,0.00
2018-03-31T01:14:17.868Z,0.00
2018-03-31T01:15:49.683Z,0.00
2018-03-31T01:17:21.499Z,0.00
2018-03-31T01:18:53.316Z,0.00
2018-03-31T01:20:25.131Z,0.00
2018-03-31T01:21:57.047Z,0.00
2018-03-31T01:23:28.762Z,0.00
2018-03-31T01:25:00.578Z,0.00
2018-03-31T01:26:32.394Z,0.00
2018-03-31T01:28:04.310Z,0.00
2018-03-31T01:29:36.024Z,0.00
2018-03-31T01:31:07.842Z,0.00
2018-03-31T01:32:39.656Z,0.00
2018-03-31T01:34:11.472Z,0.00
2018-03-31T01:35:43.288Z,0.00
2018-03-31T01:37:15.104Z,0.00
2018-03-31T01:38:46.920Z,0.00
2018-03-31T01:40:18.735Z,0.00
2018-03-31T01:41:50.556Z,0.00
2018-03-31T01:43:22.368Z,0.00
2018-03-31T01:44:54.185Z,0.00
2018-03-31T01:46:26.102Z,0.00
2018-03-31T01:47:57.818Z,0.00
2018-03-31T01:49:29.632Z,0.00
2018-03-31T01:51:01.449Z,0.00
2018-03-31T01:52:33.366Z,0.00
2018-03-31T01:54:05.082Z,0.00
2018-03-31T01:55:36.898Z,0.00
2018-03-31T01:57:08.714Z,0.00
2018-03-31T01:58:40.531Z,0.00
2018-03-31T02:00:12.346Z,0.00
2018-03-31T02:01:44.163Z,0.00
2018-03-31T02:03:15.979Z,0.00
2018-03-31T02:04:48.697Z,0.00
2018-03-31T02:06:19.612Z,0.00
2018-03-31T02:07:51.428Z,0.00
2018-03-31T02:09:23.245Z,0.00
2018-03-31T02:10:55.066Z,0.00
2018-03-31T02:12:26.881Z,0.00
2018-03-31T02:13:58.693Z,0.00
2018-03-31T02:15:30.509Z,0.00
2018-03-31T02:17:02.327Z,0.00
2018-03-31T02:18:34.196Z,0.00
2018-03-31T02:20:05.958Z,0.00
2018-03-31T02:21:37.774Z,0.00
2018-03-31T02:23:09.791Z,0.00
2018-03-31T02:24:41.406Z,0.00
2018-03-31T02:26:13.223Z,0.00
2018-03-31T02:29:17.006Z,0.00
2018-03-31T02:30:48.672Z,0.00
2018-03-31T02:32:20.488Z,0.00
2018-03-31T02:33:52.306Z,0.00
2018-03-31T02:35:24.122Z,0.00
2018-03-31T02:36:55.943Z,0.00
2018-03-31T02:38:27.753Z,0.00
2018-03-31T02:39:59.568Z,0.00
2018-03-31T02:41:31.485Z,0.00
2018-03-31T02:43:03.202Z,0.00
2018-03-31T02:44:35.019Z,0.00
2018-03-31T02:46:06.835Z,0.00
2018-03-31T02:47:38.651Z,0.00
2018-03-31T02:49:10.465Z,0.00
2018-03-31T02:50:42.283Z,0.00
2018-03-31T02:52:14.099Z,0.00
2018-03-31T02:53:46.219Z,0.00
2018-03-31T02:55:17.731Z,0.00
2018-03-31T02:56:49.547Z,0.00
2018-03-31T02:58:21.363Z,0.00
2018-03-31T02:59:53.285Z,0.00
2018-03-31T03:01:24.997Z,0.00
2018-03-31T03:02:56.815Z,0.00
2018-03-31T03:04:28.628Z,0.00
2018-03-31T03:06:00.445Z,0.00
2018-03-31T03:07:32.260Z,0.00
2018-03-31T03:09:04.077Z,0.00
2018-03-31T03:10:35.892Z,0.00
2018-03-31T03:12:07.709Z,0.00
2018-03-31T03:13:39.525Z,0.00
2018-03-31T03:15:11.341Z,0.00
2018-03-31T03:16:43.157Z,0.00
2018-03-31T03:18:15.073Z,0.00
2018-03-31T03:19:46.790Z,0.00
2018-03-31T03:21:18.605Z,0.00
2018-03-31T03:22:50.422Z,0.00
2018-03-31T03:24:22.488Z,0.00
2018-03-31T03:25:54.056Z,0.00
2018-03-31T03:27:25.870Z,0.00
2018-03-31T03:28:57.686Z,0.00
2018-03-31T03:30:29.607Z,0.00
2018-03-31T03:32:01.318Z,0.00
2018-03-31T03:33:33.134Z,0.00
2018-03-31T03:35:04.951Z,0.00
2018-03-31T03:36:36.867Z,0.00
2018-03-31T03:38:08.583Z,0.00
2018-03-31T03:39:40.398Z,0.00
2018-03-31T03:41:12.215Z,0.00
2018-03-31T03:42:44.031Z,0.00
2018-03-31T03:44:15.847Z,0.00
2018-03-31T03:45:47.664Z,0.00
2018-03-31T03:47:19.480Z,0.00
2018-03-31T03:48:51.296Z,0.00
2018-03-31T03:50:23.113Z,0.00
2018-03-31T03:51:54.929Z,0.00
2018-03-31T03:53:26.746Z,0.00
2018-03-31T03:54:58.762Z,0.00
2018-03-31T03:56:30.378Z,0.00
2018-03-31T03:58:02.193Z,0.00
2018-03-31T03:59:34.009Z,0.00
2018-03-31T04:01:05.829Z,0.00
2018-03-31T04:02:37.643Z,0.00
2018-03-31T04:04:09.457Z,0.00
2018-03-31T04:05:41.272Z,0.00
2018-03-31T04:07:13.088Z,0.00
2018-03-31T04:08:44.907Z,0.00
2018-03-31T04:10:16.723Z,0.00
2018-03-31T04:11:48.535Z,0.00
2018-03-31T04:13:20.450Z,0.00
2018-03-31T04:14:52.166Z,0.00
2018-03-31T04:16:23.982Z,0.00
2018-03-31T04:17:55.801Z,0.00
2018-03-31T04:19:27.613Z,0.00
2018-03-31T04:20:59.428Z,0.00
2018-03-31T04:22:31.245Z,0.00
2018-03-31T04:24:03.073Z,0.00
2018-03-31T04:25:34.976Z,0.00
2018-03-31T04:27:06.692Z,0.00
2018-03-31T04:28:38.507Z,0.00
2018-03-31T04:30:10.323Z,0.00
2018-03-31T04:31:42.240Z,0.00
2018-03-31T04:33:13.956Z,0.00
2018-03-31T04:34:45.771Z,0.00
2018-03-31T04:36:17.588Z,0.00
2018-03-31T04:37:49.403Z,0.00
2018-03-31T04:39:21.220Z,0.00
2018-03-31T04:40:53.036Z,0.00
2018-03-31T04:42:24.852Z,0.00
2018-03-31T04:43:56.668Z,0.00
2018-03-31T04:45:28.484Z,0.00
2018-03-31T04:47:00.300Z,0.00
2018-03-31T04:48:32.119Z,0.00
2018-03-31T04:50:04.032Z,0.00
2018-03-31T04:51:35.749Z,0.00
2018-03-31T04:53:07.564Z,0.00
2018-03-31T04:54:39.381Z,0.00
2018-03-31T04:56:11.447Z,0.00
2018-03-31T04:57:43.012Z,0.00
2018-03-31T04:59:14.828Z,0.00
2018-03-31T05:00:46.644Z,0.00
2018-03-31T05:02:18.561Z,0.00
2018-03-31T05:03:50.276Z,0.00
2018-03-31T05:05:22.091Z,0.00
2018-03-31T05:06:53.906Z,0.00
2018-03-31T05:08:25.821Z,0.00
2018-03-31T05:09:57.541Z,0.00
2018-03-31T05:11:29.354Z,0.00
2018-03-31T05:13:01.169Z,0.00
2018-03-31T05:14:32.984Z,0.00
2018-03-31T05:16:04.800Z,0.00
2018-03-31T05:17:36.616Z,0.00
2018-03-31T05:19:08.432Z,0.00
2018-03-31T05:20:40.248Z,0.00
2018-03-31T05:22:12.063Z,0.00
2018-03-31T05:23:43.879Z,0.00
2018-03-31T05:25:15.695Z,0.00
2018-03-31T05:26:47.717Z,0.00
2018-03-31T05:28:19.329Z,0.00
2018-03-31T05:29:51.142Z,0.00
2018-03-31T05:31:22.958Z,0.00
2018-03-31T05:32:54.774Z,0.00
2018-03-31T05:34:26.590Z,0.00
2018-03-31T05:35:58.405Z,0.00
2018-03-31T05:37:30.220Z,0.00
2018-03-31T05:39:02.036Z,0.00
2018-03-31T05:40:33.851Z,0.00
2018-03-31T05:42:05.703Z,0.00
2018-03-31T05:43:37.481Z,0.00
2018-03-31T05:45:09.397Z,0.00
2018-03-31T05:46:41.113Z,0.00
2018-03-31T05:48:12.928Z,0.00
2018-03-31T05:49:44.946Z,0.00
2018-03-31T05:51:16.558Z,0.00
2018-03-31T05:52:48.375Z,0.00
2018-03-31T05:54:20.192Z,0.00
2018-03-31T05:55:52.006Z,0.00
2018-03-31T05:57:24.071Z,0.00
2018-03-31T05:58:55.636Z,0.00
2018-03-31T06:00:27.451Z,0.00
2018-03-31T06:01:59.267Z,0.00
2018-03-31T06:03:31.284Z,0.00
2018-03-31T06:05:02.900Z,0.00
2018-03-31T06:06:34.719Z,0.00
2018-03-31T06:08:06.531Z,0.00
2018-03-31T06:09:38.347Z,0.00
2018-03-31T06:11:10.159Z,0.00
2018-03-31T06:12:41.975Z,0.00
2018-03-31T06:14:13.791Z,0.00
2018-03-31T06:15:45.607Z,0.00
2018-03-31T06:17:17.421Z,0.00
2018-03-31T06:18:49.236Z,0.00
2018-03-31T06:20:21.052Z,0.00
2018-03-31T06:21:52.967Z,0.00
2018-03-31T06:23:24.682Z,0.00
2018-03-31T06:24:56.497Z,0.00
2018-03-31T06:26:28.312Z,0.00
2018-03-31T06:28:00.378Z,0.00
2018-03-31T06:29:31.942Z,0.00
2018-03-31T06:31:03.757Z,0.00
2018-03-31T06:32:35.573Z,0.00
2018-03-31T06:34:07.488Z,0.00
2018-03-31T06:35:39.202Z,0.00
2018-03-31T06:37:11.017Z,0.00
2018-03-31T06:38:42.837Z,0.00
2018-03-31T06:40:14.748Z,0.00
2018-03-31T06:43:18.277Z,0.00
2018-03-31T06:44:50.092Z,0.00
2018-03-31T06:46:21.908Z,0.00
2018-03-31T06:47:53.721Z,0.00
2018-03-31T06:49:25.538Z,0.00
2018-03-31T06:50:57.352Z,0.00
2018-03-31T06:52:29.169Z,0.00
2018-03-31T06:54:00.983Z,0.00
2018-03-31T06:55:32.799Z,0.00
2018-03-31T06:57:04.614Z,0.00
2018-03-31T06:58:36.629Z,0.00
2018-03-31T07:00:08.243Z,0.00
2018-03-31T07:01:40.058Z,0.00
2018-03-31T07:03:11.873Z,0.00
2018-03-31T07:04:43.840Z,0.00
2018-03-31T07:06:15.505Z,0.00
2018-03-31T07:07:47.320Z,0.00
2018-03-31T07:09:19.136Z,0.00
2018-03-31T07:10:50.957Z,0.00
2018-03-31T07:12:22.767Z,0.00
2018-03-31T07:13:54.583Z,0.00
2018-03-31T07:15:26.437Z,0.00
2018-03-31T07:16:58.314Z,0.00
2018-03-31T07:18:30.031Z,0.00
2018-03-31T07:20:01.845Z,0.00
2018-03-31T07:21:33.660Z,0.00
2018-03-31T07:23:05.476Z,0.00
2018-03-31T07:24:37.291Z,0.00
2018-03-31T07:26:09.106Z,0.00
2018-03-31T07:27:40.921Z,0.00
2018-03-31T07:29:12.836Z,0.00
2018-03-31T07:30:44.551Z,0.00
2018-03-31T07:32:16.367Z,0.00
2018-03-31T07:33:48.181Z,0.00
2018-03-31T07:35:20.096Z,0.00
2018-03-31T07:36:51.811Z,0.00
2018-03-31T07:38:23.625Z,0.00
2018-03-31T07:39:55.440Z,0.00
2018-03-31T07:41:27.255Z,0.00
2018-03-31T07:42:59.071Z,0.00
2018-03-31T07:44:30.885Z,0.00
2018-03-31T07:46:02.703Z,0.00
2018-03-31T07:47:34.515Z,0.00
2018-03-31T07:49:06.330Z,0.00
2018-03-31T07:50:38.145Z,0.00
2018-03-31T07:52:09.973Z,0.00
2018-03-31T07:53:41.876Z,0.00
2018-03-31T07:55:13.590Z,0.00
2018-03-31T07:56:45.405Z,0.00
2018-03-31T07:58:17.272Z,0.00
2018-03-31T07:59:49.286Z,0.00
2018-03-31T08:01:20.851Z,0.00
2018-03-31T08:02:52.666Z,0.00
2018-03-31T08:04:24.480Z,0.00
2018-03-31T08:05:56.396Z,0.00
2018-03-31T08:07:28.110Z,0.00
2018-03-31T08:08:59.927Z,0.00
2018-03-31T08:10:31.741Z,0.00
2018-03-31T08:12:03.656Z,0.00
2018-03-31T08:13:35.371Z,0.00
2018-03-31T08:15:07.186Z,0.00
2018-03-31T08:16:39.027Z,0.00
2018-03-31T08:18:10.816Z,0.00
2018-03-31T08:19:42.629Z,0.00
2018-03-31T08:21:14.444Z,0.00
2018-03-31T08:22:46.259Z,0.00
2018-03-31T08:24:18.074Z,0.00
2018-03-31T08:25:49.887Z,0.00
2018-03-31T08:27:21.702Z,0.00
2018-03-31T08:28:53.517Z,0.00
2018-03-31T08:30:25.737Z,0.00
2018-03-31T08:31:57.146Z,0.00
2018-03-31T08:33:28.961Z,0.00
2018-03-31T08:35:00.776Z,0.00
2018-03-31T08:36:32.690Z,0.00
2018-03-31T08:38:04.405Z,0.00
2018-03-31T08:39:36.219Z,0.00
2018-03-31T08:41:08.036Z,0.00
2018-03-31T08:42:39.848Z,0.00
2018-03-31T08:44:11.663Z,0.00
2018-03-31T08:45:43.477Z,0.00
2018-03-31T08:47:15.366Z,0.00
2018-03-31T08:48:47.207Z,0.00
2018-03-31T08:50:18.923Z,4.00
2018-03-31T08:51:50.735Z,4.00
2018-03-31T08:53:22.550Z,4.00
2018-03-31T08:54:54.364Z,4.00
2018-03-31T08:56:26.178Z,8.00
2018-03-31T08:57:57.992Z,12.00
2018-03-31T08:59:29.807Z,20.00
2018-03-31T09:01:01.872Z,28.00
2018-03-31T09:02:33.436Z,40.00
2018-03-31T09:04:05.255Z,52.00
2018-03-31T09:05:37.064Z,76.00
2018-03-31T09:07:09.084Z,112.00
2018-03-31T09:08:40.694Z,164.00
2018-03-31T09:10:12.508Z,228.00
2018-03-31T09:11:44.321Z,304.00
2018-03-31T09:13:16.135Z,388.00
2018-03-31T09:14:47.951Z,480.00
2018-03-31T09:16:19.765Z,592.00
2018-03-31T09:17:51.579Z,708.00
2018-03-31T09:19:23.394Z,856.00
2018-03-31T09:20:55.212Z,1028.00
2018-03-31T09:22:27.022Z,1224.00
2018-03-31T09:23:58.965Z,1460.00
2018-03-31T09:25:30.755Z,1728.00
2018-03-31T09:27:02.466Z,2024.00
2018-03-31T09:28:34.280Z,2344.00
2018-03-31T09:30:06.098Z,2664.00
2018-03-31T09:31:38.159Z,3004.00
2018-03-31T09:33:09.724Z,3352.00
2018-03-31T09:34:41.539Z,3688.00
2018-03-31T09:36:13.364Z,4056.00
2018-03-31T09:37:45.269Z,4480.00
2018-03-31T09:39:16.984Z,4556.00
2018-03-31T09:40:48.801Z,5004.00
2018-03-31T09:42:20.616Z,5636.00
2018-03-31T09:43:52.532Z,5872.00
2018-03-31T09:45:24.247Z,6152.00
2018-03-31T09:46:56.064Z,6416.00
2018-03-31T09:48:27.882Z,6496.00
2018-03-31T09:49:59.706Z,7448.00
2018-03-31T09:51:31.715Z,7524.00
2018-03-31T09:53:03.335Z,8028.00
2018-03-31T09:54:35.145Z,8784.00
2018-03-31T09:56:06.963Z,9516.00
2018-03-31T09:57:38.779Z,9896.00
2018-03-31T09:59:10.599Z,10300.00
2018-03-31T10:00:42.417Z,9196.00
2018-03-31T10:02:14.632Z,11000.00
2018-03-31T10:03:46.050Z,12164.00
2018-03-31T10:05:17.869Z,12488.00
2018-03-31T10:06:49.685Z,12192.00
2018-03-31T10:08:21.806Z,13832.00
2018-03-31T10:09:53.319Z,14672.00
2018-03-31T10:11:25.137Z,14952.00
2018-03-31T10:12:56.958Z,15260.00
2018-03-31T10:14:28.773Z,15612.00
2018-03-31T10:16:00.592Z,15636.00
2018-03-31T10:17:32.415Z,16012.00
2018-03-31T10:19:04.230Z,16324.00
2018-03-31T10:20:36.149Z,15004.00
2018-03-31T10:22:07.881Z,15012.00
2018-03-31T10:23:39.889Z,17536.00
2018-03-31T10:25:11.811Z,18400.00
2018-03-31T10:26:43.326Z,18400.00
2018-03-31T10:28:15.144Z,17856.00
2018-03-31T10:29:46.964Z,19776.00
2018-03-31T10:31:18.892Z,20512.00
2018-03-31T10:32:50.703Z,21312.00
2018-03-31T10:34:22.425Z,21504.00
2018-03-31T10:35:54.246Z,20384.00
2018-03-31T10:37:26.063Z,19040.00
2018-03-31T10:38:57.984Z,18048.00
2018-03-31T10:40:29.705Z,18304.00
2018-03-31T10:42:01.828Z,20128.00
2018-03-31T10:43:33.346Z,21824.00
2018-03-31T10:45:05.165Z,22144.00
2018-03-31T10:46:36.986Z,24224.00
2018-03-31T10:48:08.807Z,24288.00
2018-03-31T10:49:40.628Z,26304.00
2018-03-31T10:51:12.451Z,26656.00
2018-03-31T10:52:44.270Z,34816.00
2018-03-31T10:54:16.091Z,38976.00
2018-03-31T10:55:48.431Z,27584.00
2018-03-31T10:57:19.834Z,24576.00
2018-03-31T10:58:51.556Z,23872.00
2018-03-31T11:00:23.418Z,23552.00
2018-03-31T11:01:55.201Z,23808.00
2018-03-31T11:03:27.577Z,24672.00
2018-03-31T11:04:58.845Z,25888.00
2018-03-31T11:06:30.667Z,26720.00
2018-03-31T11:08:02.493Z,26528.00
2018-03-31T11:09:34.313Z,27584.00
2018-03-31T11:11:06.136Z,26560.00
2018-03-31T11:12:37.959Z,27264.00
2018-03-31T11:14:09.781Z,27488.00
2018-03-31T11:15:41.906Z,27808.00
2018-03-31T11:17:13.732Z,26976.00
2018-03-31T11:18:45.249Z,25920.00
2018-03-31T11:20:17.072Z,24768.00
2018-03-31T11:21:48.894Z,24544.00
2018-03-31T11:23:20.717Z,27008.00
2018-03-31T11:24:52.751Z,29856.00
2018-03-31T11:26:24.362Z,32448.00
2018-03-31T11:27:56.184Z,33280.00
2018-03-31T11:29:28.007Z,34656.00
2018-03-31T11:31:00.032Z,44960.00
2018-03-31T11:32:31.652Z,46304.00
2018-03-31T11:34:03.881Z,37248.00
2018-03-31T11:35:35.600Z,33760.00
2018-03-31T11:37:07.119Z,38112.00
2018-03-31T11:38:38.941Z,40480.00
2018-03-31T11:40:10.766Z,39424.00
2018-03-31T11:41:42.587Z,37408.00
2018-03-31T11:43:14.409Z,35968.00
2018-03-31T11:44:46.229Z,35040.00
2018-03-31T11:46:18.054Z,34336.00
2018-03-31T11:47:49.875Z,39584.00
2018-03-31T11:49:21.700Z,39648.00
2018-03-31T11:50:53.518Z,35520.00
2018-03-31T11:52:25.442Z,35232.00
2018-03-31T11:53:57.162Z,37664.00
2018-03-31T11:55:28.985Z,33632.00
2018-03-31T11:58:32.629Z,40512.00
2018-03-31T12:00:04.654Z,44224.00
2018-03-31T12:03:08.096Z,47904.00
2018-03-31T12:04:40.372Z,48448.00
2018-03-31T12:06:11.742Z,49152.00
2018-03-31T12:07:43.565Z,47872.00
2018-03-31T12:09:15.691Z,49952.00
2018-03-31T12:10:47.512Z,48352.00
2018-03-31T12:12:19.035Z,47648.00
2018-03-31T12:13:50.858Z,49408.00
2018-03-31T12:15:22.681Z,43616.00
2018-03-31T12:18:26.332Z,43680.00
2018-03-31T12:19:58.151Z,46976.00
2018-03-31T12:21:29.976Z,43968.00
2018-03-31T12:24:33.730Z,56928.00
2018-03-31T12:26:05.446Z,60768.00
2018-03-31T12:27:37.269Z,73632.00
2018-03-31T12:29:09.092Z,74592.00
2018-03-31T12:30:41.016Z,80384.00
2018-03-31T12:32:12.741Z,86464.00
2018-03-31T12:33:44.869Z,64928.00
2018-03-31T12:35:16.396Z,79808.00
2018-03-31T12:36:48.365Z,54080.00
2018-03-31T12:38:20.040Z,44352.00
2018-03-31T12:39:51.866Z,50144.00
2018-03-31T12:42:55.515Z,53760.00
2018-03-31T12:44:27.339Z,51776.00
2018-03-31T12:45:59.164Z,56192.00
2018-03-31T12:47:30.988Z,61152.00
2018-03-31T12:49:02.915Z,66400.00
2018-03-31T12:50:34.637Z,92128.00
2018-03-31T12:52:06.462Z,69984.00
2018-03-31T12:53:38.287Z,56576.00
2018-03-31T12:55:10.212Z,56896.00
2018-03-31T12:56:41.937Z,56256.00
2018-03-31T12:58:13.764Z,67936.00
2018-03-31T13:01:17.931Z,59424.00
2018-03-31T13:02:49.236Z,49280.00
2018-03-31T13:04:21.064Z,48384.00
2018-03-31T13:05:52.886Z,48928.00
2018-03-31T13:07:24.810Z,46496.00
2018-03-31T13:08:56.536Z,45472.00
2018-03-31T13:10:28.360Z,45056.00
2018-03-31T13:12:00.388Z,45568.00
2018-03-31T13:13:32.010Z,43008.00
2018-03-31T13:15:03.834Z,41920.00
2018-03-31T13:18:07.485Z,52864.00
2018-03-31T13:19:39.828Z,57280.00
2018-03-31T13:21:11.136Z,50176.00
2018-03-31T13:22:42.957Z,46784.00
2018-03-31T13:24:14.782Z,47648.00
2018-03-31T13:25:46.908Z,51168.00
2018-03-31T13:27:18.432Z,49984.00
2018-03-31T13:28:50.256Z,42656.00
2018-03-31T13:30:22.081Z,48000.00
2018-03-31T13:33:25.729Z,44192.00
2018-03-31T13:34:57.799Z,56480.00
2018-03-31T13:36:29.381Z,57792.00
2018-03-31T13:38:01.201Z,59296.00
2018-03-31T13:39:33.025Z,51232.00
2018-03-31T13:41:04.851Z,46080.00
2018-03-31T13:42:36.674Z,46240.00
2018-03-31T13:44:08.498Z,44896.00
2018-03-31T13:45:40.426Z,46880.00
2018-03-31T13:47:12.147Z,49792.00
2018-03-31T13:48:43.972Z,47040.00
2018-03-31T13:50:16.101Z,45344.00
2018-03-31T13:51:47.622Z,47584.00
2018-03-31T13:53:19.751Z,50208.00
2018-03-31T13:54:51.793Z,50368.00
2018-03-31T13:56:23.097Z,49600.00
2018-03-31T13:57:55.021Z,49184.00
2018-03-31T13:59:26.747Z,50112.00
2018-03-31T14:00:58.576Z,56544.00
2018-03-31T14:02:30.396Z,56352.00
2018-03-31T14:04:02.321Z,52448.00
2018-03-31T14:07:06.174Z,51360.00
2018-03-31T14:08:37.696Z,49600.00
2018-03-31T14:10:10.030Z,47168.00
2018-03-31T14:11:41.346Z,45856.00
2018-03-31T14:13:13.173Z,45056.00
2018-03-31T14:14:45.003Z,45088.00
2018-03-31T14:16:16.821Z,45312.00
2018-03-31T14:19:20.472Z,42624.00
2018-03-31T14:20:52.297Z,41952.00
2018-03-31T14:22:24.223Z,42208.00
2018-03-31T14:23:55.947Z,43680.00
2018-03-31T14:25:27.772Z,44032.00
2018-03-31T14:28:31.425Z,43584.00
2018-03-31T14:30:03.765Z,44128.00
2018-03-31T14:31:35.071Z,44320.00
2018-03-31T14:33:06.896Z,44352.00
2018-03-31T14:34:38.723Z,45280.00
2018-03-31T14:36:10.552Z,46496.00
2018-03-31T14:37:42.370Z,46432.00
2018-03-31T14:39:14.195Z,46624.00
2018-03-31T14:40:46.120Z,47264.00
2018-03-31T14:43:49.668Z,50560.00
2018-03-31T14:45:21.700Z,49696.00
2018-03-31T14:46:53.838Z,51424.00
2018-03-31T14:48:25.143Z,52736.00
2018-03-31T14:49:56.968Z,56064.00
2018-03-31T14:51:28.798Z,59680.00
2018-03-31T14:54:32.445Z,59456.00
2018-03-31T14:56:04.269Z,55776.00
2018-03-31T14:57:36.095Z,53664.00
2018-03-31T14:59:07.921Z,53600.00
2018-03-31T15:00:40.466Z,59872.00
2018-03-31T15:02:12.496Z,62208.00
2018-03-31T15:03:43.399Z,61792.00
2018-03-31T15:05:15.535Z,57376.00
2018-03-31T15:06:47.052Z,63456.00
2018-03-31T15:08:18.879Z,57536.00
2018-03-31T15:09:50.706Z,68096.00
2018-03-31T15:11:22.532Z,55072.00
2018-03-31T15:12:54.359Z,59392.00
2018-03-31T15:14:26.184Z,70112.00
2018-03-31T15:15:58.365Z,57600.00
2018-03-31T15:17:30.041Z,70336.00
2018-03-31T15:19:02.491Z,67872.00
2018-03-31T15:20:33.698Z,57824.00
2018-03-31T15:22:05.836Z,63232.00
2018-03-31T15:23:37.145Z,69120.00
2018-03-31T15:25:08.971Z,64512.00
2018-03-31T15:26:40.798Z,70464.00
2018-03-31T15:28:12.625Z,68224.00
2018-03-31T15:29:44.456Z,73056.00
2018-03-31T15:31:16.375Z,69472.00
2018-03-31T15:32:48.102Z,71008.00
2018-03-31T15:34:20.131Z,77312.00
2018-03-31T15:35:51.756Z,83744.00
2018-03-31T15:38:55.760Z,86912.00
2018-03-31T15:40:27.543Z,86080.00
2018-03-31T15:41:59.085Z,88960.00
2018-03-31T15:43:30.891Z,88992.00
2018-03-31T15:45:02.782Z,81248.00
2018-03-31T15:46:34.600Z,73600.00
2018-03-31T15:48:06.372Z,75808.00
2018-03-31T15:49:38.199Z,68256.00
2018-03-31T15:51:10.026Z,72160.00
2018-03-31T15:54:14.199Z,62112.00
2018-03-31T15:57:17.447Z,74144.00
2018-03-31T15:58:49.162Z,76832.00
2018-03-31T16:00:20.987Z,67360.00
2018-03-31T16:01:52.821Z,61184.00
2018-03-31T16:03:24.640Z,55040.00
2018-03-31T16:04:56.467Z,60896.00
2018-03-31T16:06:28.293Z,64320.00
2018-03-31T16:08:00.119Z,55552.00
2018-03-31T16:09:32.197Z,50784.00
2018-03-31T16:11:04.289Z,52448.00
2018-03-31T16:12:35.900Z,60480.00
2018-03-31T16:14:07.424Z,75744.00
2018-03-31T16:15:39.353Z,82656.00
2018-03-31T16:17:11.075Z,91520.00
2018-03-31T16:18:42.899Z,95488.00
2018-03-31T16:20:14.726Z,103744.00
2018-03-31T16:21:46.553Z,106144.00
2018-03-31T16:23:18.381Z,101536.00
2018-03-31T16:24:50.205Z,99296.00
2018-03-31T16:26:22.033Z,102336.00
2018-03-31T16:27:53.861Z,101184.00
2018-03-31T16:29:25.717Z,101024.00
2018-03-31T16:32:29.346Z,101056.00
2018-03-31T16:34:01.427Z,99968.00
2018-03-31T16:35:33.005Z,97952.00
2018-03-31T16:37:05.353Z,97152.00
2018-03-31T16:38:36.666Z,95552.00
2018-03-31T16:40:08.751Z,94208.00
2018-03-31T16:41:40.321Z,92352.00
2018-03-31T16:43:12.152Z,91872.00
2018-03-31T16:44:43.980Z,91936.00
2018-03-31T16:46:15.810Z,93792.00
2018-03-31T16:47:47.640Z,96064.00
2018-03-31T16:49:19.670Z,96416.00
2018-03-31T16:50:52.206Z,98272.00
2018-03-31T16:52:23.267Z,97632.00
2018-03-31T16:53:54.954Z,98592.00
2018-03-31T16:55:26.783Z,98976.00
2018-03-31T16:56:58.611Z,100704.00
2018-03-31T16:58:30.446Z,98848.00
2018-03-31T17:00:02.271Z,93856.00
2018-03-31T17:01:34.098Z,81664.00
2018-03-31T17:03:06.128Z,79840.00
2018-03-31T17:04:37.856Z,83968.00
2018-03-31T17:07:41.413Z,75008.00
2018-03-31T17:09:13.546Z,61280.00
2018-03-31T17:10:45.422Z,76928.00
2018-03-31T17:12:16.899Z,68128.00
2018-03-31T17:13:48.726Z,49824.00
2018-03-31T17:15:20.553Z,40320.00
2018-03-31T17:16:52.380Z,34272.00
2018-03-31T17:18:24.210Z,31008.00
2018-03-31T17:19:56.035Z,29024.00
2018-03-31T17:21:27.861Z,28960.00
2018-03-31T17:23:00.207Z,28096.00
2018-03-31T17:26:03.339Z,26720.00
2018-03-31T17:27:35.169Z,27072.00
2018-03-31T17:29:07.089Z,27232.00
2018-03-31T17:30:38.815Z,26944.00
2018-03-31T17:32:10.639Z,26784.00
2018-03-31T17:33:42.464Z,26976.00
2018-03-31T17:35:14.389Z,26464.00
2018-03-31T17:36:46.139Z,26048.00
2018-03-31T17:38:17.939Z,25984.00
2018-03-31T17:39:49.972Z,26240.00
2018-03-31T17:42:53.458Z,27328.00
2018-03-31T17:44:25.754Z,28160.00
2018-03-31T17:45:57.061Z,29280.00
2018-03-31T17:47:28.885Z,31136.00
2018-03-31T17:49:00.813Z,32352.00
2018-03-31T17:50:32.684Z,36288.00
2018-03-31T17:52:04.359Z,39552.00
2018-03-31T17:53:36.182Z,40608.00
2018-03-31T17:55:08.214Z,34592.00
2018-03-31T17:56:39.830Z,34560.00
2018-03-31T17:58:11.656Z,34176.00
2018-03-31T17:59:43.682Z,33952.00
2018-03-31T18:01:15.609Z,34336.00
2018-03-31T18:02:47.131Z,36032.00
2018-03-31T18:04:18.954Z,34368.00
2018-03-31T18:07:22.808Z,32832.00
2018-03-31T18:08:54.430Z,33856.00
2018-03-31T18:10:26.256Z,35936.00
2018-03-31T18:11:58.080Z,36480.00
2018-03-31T18:13:30.155Z,35648.00
2018-03-31T18:15:01.729Z,36256.00
2018-03-31T18:18:05.380Z,83904.00
2018-03-31T18:19:37.208Z,72768.00
2018-03-31T18:21:09.030Z,82336.00
2018-03-31T18:22:40.856Z,65184.00
2018-03-31T18:24:12.680Z,33152.00
2018-03-31T18:25:44.608Z,34208.00
2018-03-31T18:27:16.337Z,24992.00
2018-03-31T18:28:48.158Z,22272.00
2018-03-31T18:30:19.984Z,20000.00
2018-03-31T18:31:51.809Z,18688.00
2018-03-31T18:34:55.463Z,17056.00
2018-03-31T18:36:27.804Z,15032.00
2018-03-31T18:37:59.109Z,13208.00
2018-03-31T18:39:30.935Z,11500.00
2018-03-31T18:41:02.760Z,9936.00
2018-03-31T18:42:34.583Z,8864.00
2018-03-31T18:44:06.860Z,8028.00
2018-03-31T18:45:38.233Z,7356.00
2018-03-31T18:47:10.056Z,6740.00
2018-03-31T18:48:41.881Z,6276.00
2018-03-31T18:50:13.705Z,6008.00
2018-03-31T18:51:45.732Z,6016.00
2018-03-31T18:53:17.354Z,6124.00
2018-03-31T18:54:49.177Z,6292.00
2018-03-31T18:56:21.001Z,6448.00
2018-03-31T18:57:52.825Z,6696.00
2018-03-31T18:59:24.650Z,7056.00
2018-03-31T19:00:56.471Z,7400.00
2018-03-31T19:02:28.395Z,7776.00
2018-03-31T19:04:00.121Z,8152.00
2018-03-31T19:05:31.940Z,8472.00
2018-03-31T19:07:03.780Z,8792.00
2018-03-31T19:10:07.409Z,9660.00
2018-03-31T19:11:39.232Z,10160.00
2018-03-31T19:13:11.089Z,10532.00
2018-03-31T19:14:42.879Z,10692.00
2018-03-31T19:16:14.700Z,10880.00
2018-03-31T19:17:46.523Z,11276.00
2018-03-31T19:19:18.345Z,11844.00
2018-03-31T19:20:50.168Z,12400.00
2018-03-31T19:22:22.090Z,12676.00
2018-03-31T19:23:54.065Z,12816.00
2018-03-31T19:25:25.635Z,13112.00
2018-03-31T19:26:57.662Z,13584.00
2018-03-31T19:28:29.381Z,14000.00
2018-03-31T19:30:01.103Z,14272.00
2018-03-31T19:31:32.926Z,14216.00
2018-03-31T19:33:04.749Z,13760.00
2018-03-31T19:34:36.571Z,13076.00
2018-03-31T19:36:08.394Z,12344.00
2018-03-31T19:37:40.217Z,11664.00
2018-03-31T19:39:12.040Z,10724.00
2018-03-31T19:40:43.963Z,9660.00
2018-03-31T19:42:15.685Z,8392.00
2018-03-31T19:45:19.333Z,6020.00
2018-03-31T19:46:51.402Z,5220.00